logo
Search for airport 
image banner adimage banner adimage banner ad
image banner ad

SVIA - Los Andes

Located in Zulia, Venezuela

ICAO - , IATA -

Data provided by Airmate  

General information

Coordinates: N10°0'1" W72°34'59"
Elevation is 393 feet MSL.
Magnetic variation is -9° East
View others Airports in Zulia

Operational data

Special qualification required
Current time UTC:
Current local time:
Weather at : - ( 0 km )
METAR: PAKU 191445Z 08013KT 10SM R06/P6000FT SKC 02/M01 A3008
View NOTAMs / SUP AIP / TFR affecting this airport [VIEW]
Communications frequencies: [VIEW]

Runways:

RWY identifierQFULength (ft)Width (ft)SurfaceLDA (ft)
01334247ASPH
19181°334247ASPH

Airport contact information

Address: Zulia Venezuela

Satellite view of SVIA